sensor_id;sensor_type;location;lat;lon;timestamp;pressure;altitude;pressure_sealevel;temperature;humidity
21821;BME280;11073;48.586;12.066;2023-02-16T00:00:32;97552.84;;;0.65;78.82
21821;BME280;11073;48.586;12.066;2023-02-16T00:03:02;97554.56;;;0.66;78.66
21821;BME280;11073;48.586;12.066;2023-02-16T00:05:32;97552.25;;;0.71;78.80
21821;BME280;11073;48.586;12.066;2023-02-16T00:08:01;97552.72;;;0.66;78.49
21821;BME280;11073;48.586;12.066;2023-02-16T00:10:32;97561.00;;;0.63;78.38
21821;BME280;11073;48.586;12.066;2023-02-16T00:13:01;97555.44;;;0.57;78.38
21821;BME280;11073;48.586;12.066;2023-02-16T00:16:02;97559.66;;;0.49;78.29
21821;BME280;11073;48.586;12.066;2023-02-16T00:18:32;97553.06;;;0.53;78.45
21821;BME280;11073;48.586;12.066;2023-02-16T00:21:00;97554.34;;;0.49;78.40
21821;BME280;11073;48.586;12.066;2023-02-16T00:23:29;97543.59;;;0.41;78.25
21821;BME280;11073;48.586;12.066;2023-02-16T00:25:58;97548.13;;;0.31;78.31
21821;BME280;11073;48.586;12.066;2023-02-16T00:28:27;97542.81;;;0.31;78.42
21821;BME280;11073;48.586;12.066;2023-02-16T00:30:56;97538.72;;;0.37;78.65
21821;BME280;11073;48.586;12.066;2023-02-16T00:33:25;97534.13;;;0.29;78.52
21821;BME280;11073;48.586;12.066;2023-02-16T00:35:55;97529.00;;;0.18;78.41
21821;BME280;11073;48.586;12.066;2023-02-16T00:38:24;97532.91;;;0.14;78.61
21821;BME280;11073;48.586;12.066;2023-02-16T00:40:53;97536.09;;;0.27;78.72
21821;BME280;11073;48.586;12.066;2023-02-16T00:43:25;97532.44;;;0.28;78.69
21821;BME280;11073;48.586;12.066;2023-02-16T00:45:54;97537.91;;;0.26;78.52
21821;BME280;11073;48.586;12.066;2023-02-16T00:48:23;97499.97;;;-0.13;78.08
21821;BME280;11073;48.586;12.066;2023-02-16T00:50:52;97537.75;;;0.01;78.34
21821;BME280;11073;48.586;12.066;2023-02-16T00:53:22;97534.13;;;0.02;78.52
21821;BME280;11073;48.586;12.066;2023-02-16T00:55:52;97540.38;;;0.10;78.62
21821;BME280;11073;48.586;12.066;2023-02-16T00:58:23;97541.63;;;0.16;78.63
21821;BME280;11073;48.586;12.066;2023-02-16T01:00:54;97538.25;;;0.14;78.45
21821;BME280;11073;48.586;12.066;2023-02-16T01:03:25;97529.72;;;0.10;78.36
21821;BME280;11073;48.586;12.066;2023-02-16T01:05:56;97521.34;;;0.05;78.33
21821;BME280;11073;48.586;12.066;2023-02-16T01:08:40;97519.56;;;-0.04;78.53
21821;BME280;11073;48.586;12.066;2023-02-16T01:11:27;97519.84;;;-0.07;78.80
21821;BME280;11073;48.586;12.066;2023-02-16T01:13:56;97522.06;;;-0.03;79.01
21821;BME280;11073;48.586;12.066;2023-02-16T01:16:33;97519.50;;;0.06;78.99
21821;BME280;11073;48.586;12.066;2023-02-16T01:19:03;97523.84;;;0.07;78.94
21821;BME280;11073;48.586;12.066;2023-02-16T01:21:32;97521.63;;;0.02;78.79
21821;BME280;11073;48.586;12.066;2023-02-16T01:24:02;97518.97;;;0.02;78.80
21821;BME280;11073;48.586;12.066;2023-02-16T01:26:37;97514.19;;;0.06;78.88
21821;BME280;11073;48.586;12.066;2023-02-16T01:29:12;97514.16;;;0.15;79.19
21821;BME280;11073;48.586;12.066;2023-02-16T01:31:42;97510.50;;;0.16;78.85
21821;BME280;11073;48.586;12.066;2023-02-16T01:34:11;97504.19;;;0.17;79.06
21821;BME280;11073;48.586;12.066;2023-02-16T01:36:44;97499.34;;;0.03;78.72
21821;BME280;11073;48.586;12.066;2023-02-16T01:39:17;97514.75;;;0.09;78.99
21821;BME280;11073;48.586;12.066;2023-02-16T01:41:57;97514.44;;;0.12;79.04
21821;BME280;11073;48.586;12.066;2023-02-16T01:44:29;97505.75;;;0.10;79.16
21821;BME280;11073;48.586;12.066;2023-02-16T01:47:06;97508.84;;;0.06;79.00
21821;BME280;11073;48.586;12.066;2023-02-16T01:49:38;97503.84;;;0.03;79.04
21821;BME280;11073;48.586;12.066;2023-02-16T01:52:13;97506.50;;;0.03;79.03
21821;BME280;11073;48.586;12.066;2023-02-16T01:54:52;97485.03;;;0.04;79.14
21821;BME280;11073;48.586;12.066;2023-02-16T01:57:26;97482.88;;;0.17;78.99
21821;BME280;11073;48.586;12.066;2023-02-16T02:00:18;97495.97;;;0.28;78.91
21821;BME280;11073;48.586;12.066;2023-02-16T02:02:51;97490.28;;;0.23;78.99
21821;BME280;11073;48.586;12.066;2023-02-16T02:05:43;97492.78;;;0.25;78.81
21821;BME280;11073;48.586;12.066;2023-02-16T02:08:18;97493.19;;;0.30;78.79
21821;BME280;11073;48.586;12.066;2023-02-16T02:10:59;97481.13;;;0.26;78.81
21821;BME280;11073;48.586;12.066;2023-02-16T02:13:38;97477.31;;;0.28;78.67
21821;BME280;11073;48.586;12.066;2023-02-16T02:16:09;97480.63;;;0.22;78.58
21821;BME280;11073;48.586;12.066;2023-02-16T02:18:39;97464.31;;;0.25;78.74
21821;BME280;11073;48.586;12.066;2023-02-16T02:21:21;97471.06;;;0.20;78.46
21821;BME280;11073;48.586;12.066;2023-02-16T02:27:19;97470.78;;;0.23;78.61
21821;BME280;11073;48.586;12.066;2023-02-16T02:30:04;97470.66;;;0.24;78.82
21821;BME280;11073;48.586;12.066;2023-02-16T02:32:49;97475.22;;;0.32;78.57
21821;BME280;11073;48.586;12.066;2023-02-16T02:35:31;97469.66;;;0.25;78.51
21821;BME280;11073;48.586;12.066;2023-02-16T02:38:09;97479.03;;;0.30;78.36
21821;BME280;11073;48.586;12.066;2023-02-16T02:40:47;97440.94;;;0.19;78.46
21821;BME280;11073;48.586;12.066;2023-02-16T02:43:27;97468.50;;;0.28;78.10
21821;BME280;11073;48.586;12.066;2023-02-16T02:46:03;97466.66;;;0.28;78.12
21821;BME280;11073;48.586;12.066;2023-02-16T02:48:34;97472.72;;;0.31;78.26
21821;BME280;11073;48.586;12.066;2023-02-16T02:51:09;97474.16;;;0.43;78.44
21821;BME280;11073;48.586;12.066;2023-02-16T02:54:03;97467.63;;;0.37;78.02
21821;BME280;11073;48.586;12.066;2023-02-16T02:56:58;97474.81;;;0.27;77.93
21821;BME280;11073;48.586;12.066;2023-02-16T02:59:52;97481.81;;;0.28;77.92
21821;BME280;11073;48.586;12.066;2023-02-16T03:02:41;97464.16;;;0.27;77.97
21821;BME280;11073;48.586;12.066;2023-02-16T03:05:11;97460.91;;;0.33;77.96
21821;BME280;11073;48.586;12.066;2023-02-16T03:07:43;97473.09;;;0.36;77.90
21821;BME280;11073;48.586;12.066;2023-02-16T03:10:18;97460.63;;;0.09;77.52
21821;BME280;11073;48.586;12.066;2023-02-16T03:13:10;97467.88;;;-0.11;77.56
21821;BME280;11073;48.586;12.066;2023-02-16T03:15:43;97451.44;;;-0.34;77.80
21821;BME280;11073;48.586;12.066;2023-02-16T03:18:15;97475.03;;;-0.12;77.92
21821;BME280;11073;48.586;12.066;2023-02-16T03:21:02;97478.38;;;-0.10;78.14
21821;BME280;11073;48.586;12.066;2023-02-16T03:23:49;97484.38;;;-0.08;78.04
21821;BME280;11073;48.586;12.066;2023-02-16T03:26:36;97487.41;;;-0.20;78.24
21821;BME280;11073;48.586;12.066;2023-02-16T03:29:25;97477.84;;;-0.23;78.21
21821;BME280;11073;48.586;12.066;2023-02-16T03:31:56;97484.84;;;-0.22;78.36
21821;BME280;11073;48.586;12.066;2023-02-16T03:34:25;97479.53;;;-0.22;78.77
21821;BME280;11073;48.586;12.066;2023-02-16T03:36:57;97490.94;;;-0.02;78.41
21821;BME280;11073;48.586;12.066;2023-02-16T03:39:28;97473.97;;;-0.01;78.68
21821;BME280;11073;48.586;12.066;2023-02-16T03:41:57;97467.25;;;0.05;78.40
21821;BME280;11073;48.586;12.066;2023-02-16T03:44:26;97472.88;;;0.02;78.25
21821;BME280;11073;48.586;12.066;2023-02-16T03:46:56;97474.69;;;0.01;78.27
21821;BME280;11073;48.586;12.066;2023-02-16T03:49:25;97470.22;;;0.02;78.30
21821;BME280;11073;48.586;12.066;2023-02-16T03:51:53;97476.38;;;0.02;78.42
21821;BME280;11073;48.586;12.066;2023-02-16T03:54:22;97481.34;;;-0.13;78.17
21821;BME280;11073;48.586;12.066;2023-02-16T03:56:50;97481.19;;;-0.11;78.23
21821;BME280;11073;48.586;12.066;2023-02-16T03:59:19;97475.56;;;-0.08;78.38
21821;BME280;11073;48.586;12.066;2023-02-16T04:01:48;97478.78;;;-0.05;78.51
21821;BME280;11073;48.586;12.066;2023-02-16T04:04:18;97490.66;;;0.01;78.51
21821;BME280;11073;48.586;12.066;2023-02-16T04:06:47;97480.28;;;0.08;78.41
21821;BME280;11073;48.586;12.066;2023-02-16T04:09:15;97479.66;;;0.14;78.47
21821;BME280;11073;48.586;12.066;2023-02-16T04:11:44;97484.16;;;0.13;78.46
21821;BME280;11073;48.586;12.066;2023-02-16T04:14:30;97482.78;;;0.09;78.31
21821;BME280;11073;48.586;12.066;2023-02-16T04:16:59;97487.28;;;0.09;78.43
21821;BME280;11073;48.586;12.066;2023-02-16T04:19:31;97483.38;;;0.03;78.38
21821;BME280;11073;48.586;12.066;2023-02-16T04:22:00;97475.53;;;0.02;78.48
21821;BME280;11073;48.586;12.066;2023-02-16T04:24:28;97499.59;;;0.10;78.36
21821;BME280;11073;48.586;12.066;2023-02-16T04:26:57;97487.78;;;0.12;78.58
21821;BME280;11073;48.586;12.066;2023-02-16T04:29:26;97493.94;;;0.22;78.66
21821;BME280;11073;48.586;12.066;2023-02-16T04:31:55;97502.00;;;0.31;78.55
21821;BME280;11073;48.586;12.066;2023-02-16T04:34:23;97495.22;;;0.36;78.61
21821;BME280;11073;48.586;12.066;2023-02-16T04:36:54;97481.19;;;0.44;78.38
21821;BME280;11073;48.586;12.066;2023-02-16T04:39:23;97483.97;;;0.42;78.27
21821;BME280;11073;48.586;12.066;2023-02-16T04:41:52;97494.19;;;0.29;78.00
21821;BME280;11073;48.586;12.066;2023-02-16T04:44:21;97479.66;;;0.14;78.04
21821;BME280;11073;48.586;12.066;2023-02-16T04:46:50;97472.75;;;0.21;78.20
21821;BME280;11073;48.586;12.066;2023-02-16T04:49:18;97465.91;;;0.18;78.01
21821;BME280;11073;48.586;12.066;2023-02-16T04:51:48;97469.63;;;0.08;78.02
21821;BME280;11073;48.586;12.066;2023-02-16T04:54:18;97458.94;;;-0.20;78.02
21821;BME280;11073;48.586;12.066;2023-02-16T04:56:47;97464.16;;;-0.28;78.05
21821;BME280;11073;48.586;12.066;2023-02-16T04:59:16;97469.91;;;-0.33;78.32
21821;BME280;11073;48.586;12.066;2023-02-16T05:01:44;97474.72;;;-0.36;78.48
21821;BME280;11073;48.586;12.066;2023-02-16T05:04:13;97472.88;;;-0.36;78.88
21821;BME280;11073;48.586;12.066;2023-02-16T05:06:42;97476.38;;;-0.35;78.74
21821;BME280;11073;48.586;12.066;2023-02-16T05:09:11;97477.94;;;-0.42;78.63
21821;BME280;11073;48.586;12.066;2023-02-16T05:11:41;97473.47;;;-0.51;78.76
21821;BME280;11073;48.586;12.066;2023-02-16T05:14:30;97476.28;;;-0.53;78.86
21821;BME280;11073;48.586;12.066;2023-02-16T05:17:14;97471.53;;;-0.49;78.86
21821;BME280;11073;48.586;12.066;2023-02-16T05:19:44;97474.72;;;-0.46;78.92
21821;BME280;11073;48.586;12.066;2023-02-16T05:22:14;97456.66;;;-0.42;79.00
21821;BME280;11073;48.586;12.066;2023-02-16T05:24:43;97483.53;;;-0.45;78.64
21821;BME280;11073;48.586;12.066;2023-02-16T05:27:15;97480.72;;;-0.44;78.89
21821;BME280;11073;48.586;12.066;2023-02-16T05:29:44;97464.53;;;-0.60;78.79
21821;BME280;11073;48.586;12.066;2023-02-16T05:32:13;97471.91;;;-0.44;78.96
21821;BME280;11073;48.586;12.066;2023-02-16T05:34:42;97485.50;;;-0.47;78.76
21821;BME280;11073;48.586;12.066;2023-02-16T05:37:12;97480.22;;;-0.57;78.77
21821;BME280;11073;48.586;12.066;2023-02-16T05:39:41;97486.91;;;-0.43;78.83
21821;BME280;11073;48.586;12.066;2023-02-16T05:42:10;97488.13;;;-0.38;79.10
21821;BME280;11073;48.586;12.066;2023-02-16T05:44:40;97490.25;;;-0.41;78.80
21821;BME280;11073;48.586;12.066;2023-02-16T05:47:08;97502.28;;;-0.37;78.71
21821;BME280;11073;48.586;12.066;2023-02-16T05:49:37;97495.44;;;-0.40;78.71
21821;BME280;11073;48.586;12.066;2023-02-16T05:52:06;97505.09;;;-0.39;78.82
21821;BME280;11073;48.586;12.066;2023-02-16T05:54:35;97512.66;;;-0.34;78.61
21821;BME280;11073;48.586;12.066;2023-02-16T05:57:03;97517.56;;;-0.39;78.52
21821;BME280;11073;48.586;12.066;2023-02-16T05:59:32;97516.00;;;-0.32;78.70
21821;BME280;11073;48.586;12.066;2023-02-16T06:02:03;97506.19;;;-0.32;78.77
21821;BME280;11073;48.586;12.066;2023-02-16T06:04:31;97516.25;;;-0.25;78.57
21821;BME280;11073;48.586;12.066;2023-02-16T06:07:00;97512.34;;;-0.21;78.62
21821;BME280;11073;48.586;12.066;2023-02-16T06:09:28;97490.94;;;-0.39;78.37
21821;BME280;11073;48.586;12.066;2023-02-16T06:11:57;97520.44;;;-0.23;78.40
21821;BME280;11073;48.586;12.066;2023-02-16T06:14:26;97524.25;;;-0.25;78.36
21821;BME280;11073;48.586;12.066;2023-02-16T06:16:55;97514.59;;;-0.26;78.19
21821;BME280;11073;48.586;12.066;2023-02-16T06:19:26;97517.56;;;-0.39;78.09
21821;BME280;11073;48.586;12.066;2023-02-16T06:21:55;97518.53;;;-0.40;78.34
21821;BME280;11073;48.586;12.066;2023-02-16T06:24:24;97510.56;;;-0.40;78.25
21821;BME280;11073;48.586;12.066;2023-02-16T06:26:54;97516.41;;;-0.37;78.38
21821;BME280;11073;48.586;12.066;2023-02-16T06:29:23;97510.97;;;-0.35;78.38
21821;BME280;11073;48.586;12.066;2023-02-16T06:31:52;97523.56;;;-0.28;78.51
21821;BME280;11073;48.586;12.066;2023-02-16T06:34:20;97532.34;;;-0.17;78.39
21821;BME280;11073;48.586;12.066;2023-02-16T06:36:51;97533.28;;;-0.09;78.37
21821;BME280;11073;48.586;12.066;2023-02-16T06:39:19;97530.34;;;-0.06;78.21
21821;BME280;11073;48.586;12.066;2023-02-16T06:41:48;97527.97;;;-0.09;78.03
21821;BME280;11073;48.586;12.066;2023-02-16T06:44:17;97539.75;;;-0.11;77.92
21821;BME280;11073;48.586;12.066;2023-02-16T06:46:46;97539.91;;;-0.13;77.73
21821;BME280;11073;48.586;12.066;2023-02-16T06:49:17;97547.44;;;-0.08;77.91
21821;BME280;11073;48.586;12.066;2023-02-16T06:51:47;97551.34;;;-0.03;77.97
21821;BME280;11073;48.586;12.066;2023-02-16T06:54:18;97547.28;;;0.03;77.69
21821;BME280;11073;48.586;12.066;2023-02-16T06:56:46;97553.97;;;0.07;77.67
21821;BME280;11073;48.586;12.066;2023-02-16T06:59:15;97552.84;;;0.10;77.64
21821;BME280;11073;48.586;12.066;2023-02-16T07:01:43;97559.03;;;0.10;77.32
21821;BME280;11073;48.586;12.066;2023-02-16T07:04:12;97544.56;;;0.13;77.51
21821;BME280;11073;48.586;12.066;2023-02-16T07:06:42;97560.94;;;0.18;77.61
21821;BME280;11073;48.586;12.066;2023-02-16T07:09:11;97557.97;;;0.21;77.32
21821;BME280;11073;48.586;12.066;2023-02-16T07:11:41;97551.44;;;0.15;77.36
21821;BME280;11073;48.586;12.066;2023-02-16T07:14:09;97567.38;;;0.25;77.32
21821;BME280;11073;48.586;12.066;2023-02-16T07:16:38;97579.44;;;0.29;77.15
21821;BME280;11073;48.586;12.066;2023-02-16T07:19:07;97574.31;;;0.36;77.05
21821;BME280;11073;48.586;12.066;2023-02-16T07:21:37;97559.06;;;0.28;77.05
21821;BME280;11073;48.586;12.066;2023-02-16T07:24:06;97578.22;;;0.41;76.88
21821;BME280;11073;48.586;12.066;2023-02-16T07:26:34;97574.88;;;0.39;76.78
21821;BME280;11073;48.586;12.066;2023-02-16T07:29:06;97574.56;;;0.42;76.55
21821;BME280;11073;48.586;12.066;2023-02-16T07:31:35;97569.66;;;0.47;76.74
21821;BME280;11073;48.586;12.066;2023-02-16T07:34:04;97572.00;;;0.50;76.47
21821;BME280;11073;48.586;12.066;2023-02-16T07:36:32;97573.41;;;0.54;76.45
21821;BME280;11073;48.586;12.066;2023-02-16T07:39:01;97580.81;;;0.61;76.52
21821;BME280;11073;48.586;12.066;2023-02-16T07:41:30;97568.00;;;0.64;76.36
21821;BME280;11073;48.586;12.066;2023-02-16T07:44:07;97574.97;;;0.75;76.32
21821;BME280;11073;48.586;12.066;2023-02-16T07:46:36;97578.72;;;0.82;76.34
21821;BME280;11073;48.586;12.066;2023-02-16T07:49:05;97571.00;;;0.79;75.88
21821;BME280;11073;48.586;12.066;2023-02-16T07:51:33;97573.00;;;0.77;75.88
21821;BME280;11073;48.586;12.066;2023-02-16T07:54:02;97564.31;;;0.75;75.99
21821;BME280;11073;48.586;12.066;2023-02-16T07:56:32;97578.47;;;0.75;75.60
21821;BME280;11073;48.586;12.066;2023-02-16T07:59:02;97585.03;;;0.81;75.53
21821;BME280;11073;48.586;12.066;2023-02-16T08:01:32;97585.13;;;0.89;75.65
21821;BME280;11073;48.586;12.066;2023-02-16T08:04:01;97579.25;;;0.86;75.45
21821;BME280;11073;48.586;12.066;2023-02-16T08:06:30;97592.78;;;1.02;75.23
21821;BME280;11073;48.586;12.066;2023-02-16T08:08:59;97578.56;;;1.01;75.26
21821;BME280;11073;48.586;12.066;2023-02-16T08:11:28;97574.38;;;0.99;74.90
21821;BME280;11073;48.586;12.066;2023-02-16T08:13:57;97577.97;;;1.07;74.94
21821;BME280;11073;48.586;12.066;2023-02-16T08:16:27;97572.19;;;1.12;74.77
21821;BME280;11073;48.586;12.066;2023-02-16T08:19:00;97584.41;;;1.32;74.76
21821;BME280;11073;48.586;12.066;2023-02-16T08:21:31;97577.91;;;1.35;74.40
21821;BME280;11073;48.586;12.066;2023-02-16T08:24:02;97581.13;;;1.38;74.33
21821;BME280;11073;48.586;12.066;2023-02-16T08:26:33;97573.56;;;1.34;74.17
21821;BME280;11073;48.586;12.066;2023-02-16T08:29:04;97560.22;;;1.34;74.00
21821;BME280;11073;48.586;12.066;2023-02-16T08:31:34;97582.69;;;1.49;74.02
21821;BME280;11073;48.586;12.066;2023-02-16T08:34:06;97581.47;;;1.44;73.97
21821;BME280;11073;48.586;12.066;2023-02-16T08:36:36;97593.81;;;1.45;73.97
21821;BME280;11073;48.586;12.066;2023-02-16T08:39:10;97588.81;;;1.42;73.63
21821;BME280;11073;48.586;12.066;2023-02-16T08:41:40;97568.44;;;1.41;73.55
21821;BME280;11073;48.586;12.066;2023-02-16T08:44:09;97590.59;;;1.59;73.57
21821;BME280;11073;48.586;12.066;2023-02-16T08:46:40;97590.06;;;1.73;73.59
21821;BME280;11073;48.586;12.066;2023-02-16T08:49:11;97588.59;;;1.79;73.53
21821;BME280;11073;48.586;12.066;2023-02-16T08:51:42;97590.97;;;1.82;73.25
21821;BME280;11073;48.586;12.066;2023-02-16T08:54:14;97598.66;;;1.85;73.10
21821;BME280;11073;48.586;12.066;2023-02-16T08:56:44;97594.53;;;1.90;73.11
21821;BME280;11073;48.586;12.066;2023-02-16T08:59:15;97587.25;;;2.01;73.09
21821;BME280;11073;48.586;12.066;2023-02-16T09:01:45;97598.69;;;2.11;72.90
21821;BME280;11073;48.586;12.066;2023-02-16T09:04:18;97593.44;;;2.01;72.68
21821;BME280;11073;48.586;12.066;2023-02-16T09:06:47;97595.94;;;2.03;72.82
21821;BME280;11073;48.586;12.066;2023-02-16T09:09:16;97584.34;;;2.12;72.96
21821;BME280;11073;48.586;12.066;2023-02-16T09:11:46;97586.22;;;2.19;72.86
21821;BME280;11073;48.586;12.066;2023-02-16T09:14:16;97584.84;;;2.15;72.63
21821;BME280;11073;48.586;12.066;2023-02-16T09:16:45;97590.81;;;2.09;72.85
21821;BME280;11073;48.586;12.066;2023-02-16T09:19:17;97565.31;;;1.89;72.73
21821;BME280;11073;48.586;12.066;2023-02-16T09:21:48;97594.66;;;2.07;72.94
21821;BME280;11073;48.586;12.066;2023-02-16T09:24:18;97597.91;;;2.18;72.79
21821;BME280;11073;48.586;12.066;2023-02-16T09:26:48;97601.06;;;2.22;72.82
21821;BME280;11073;48.586;12.066;2023-02-16T09:29:18;97611.03;;;2.38;72.92
21821;BME280;11073;48.586;12.066;2023-02-16T09:31:48;97606.25;;;2.49;72.76
21821;BME280;11073;48.586;12.066;2023-02-16T09:34:19;97595.22;;;2.53;72.72
21821;BME280;11073;48.586;12.066;2023-02-16T09:36:49;97598.09;;;2.59;72.64
21821;BME280;11073;48.586;12.066;2023-02-16T09:39:18;97589.22;;;2.59;72.40
21821;BME280;11073;48.586;12.066;2023-02-16T09:42:01;97588.56;;;2.57;72.29
21821;BME280;11073;48.586;12.066;2023-02-16T09:44:39;97597.91;;;2.53;72.40
21821;BME280;11073;48.586;12.066;2023-02-16T09:47:18;97589.88;;;2.53;72.30
21821;BME280;11073;48.586;12.066;2023-02-16T09:49:50;97592.28;;;2.64;72.40
21821;BME280;11073;48.586;12.066;2023-02-16T09:52:27;97582.41;;;2.64;72.32
21821;BME280;11073;48.586;12.066;2023-02-16T09:54:59;97601.16;;;2.72;72.24
21821;BME280;11073;48.586;12.066;2023-02-16T09:57:39;97595.53;;;2.84;72.26
21821;BME280;11073;48.586;12.066;2023-02-16T10:00:18;97604.59;;;2.99;72.24
21821;BME280;11073;48.586;12.066;2023-02-16T10:02:52;97605.31;;;3.17;72.19
21821;BME280;11073;48.586;12.066;2023-02-16T10:05:28;97605.69;;;3.30;71.99
21821;BME280;11073;48.586;12.066;2023-02-16T10:08:02;97594.13;;;3.30;71.69
21821;BME280;11073;48.586;12.066;2023-02-16T10:10:39;97601.81;;;3.33;71.50
21821;BME280;11073;48.586;12.066;2023-02-16T10:13:16;97598.50;;;3.39;71.47
21821;BME280;11073;48.586;12.066;2023-02-16T10:15:49;97603.69;;;3.41;71.25
21821;BME280;11073;48.586;12.066;2023-02-16T10:18:24;97604.72;;;3.48;71.25
21821;BME280;11073;48.586;12.066;2023-02-16T10:20:59;97599.38;;;3.56;71.12
21821;BME280;11073;48.586;12.066;2023-02-16T10:23:37;97596.88;;;3.63;70.97
21821;BME280;11073;48.586;12.066;2023-02-16T10:26:14;97588.97;;;3.94;71.09
21821;BME280;11073;48.586;12.066;2023-02-16T10:28:46;97586.53;;;4.39;71.11
21821;BME280;11073;48.586;12.066;2023-02-16T10:31:22;97589.09;;;4.80;70.96
21821;BME280;11073;48.586;12.066;2023-02-16T10:34:02;97579.63;;;5.23;70.59
21821;BME280;11073;48.586;12.066;2023-02-16T10:36:54;97594.09;;;5.68;70.08
21821;BME280;11073;48.586;12.066;2023-02-16T10:39:29;97594.44;;;5.88;69.42
21821;BME280;11073;48.586;12.066;2023-02-16T10:42:10;97584.22;;;5.84;68.83
21821;BME280;11073;48.586;12.066;2023-02-16T10:44:45;97583.50;;;5.90;68.51
21821;BME280;11073;48.586;12.066;2023-02-16T10:47:24;97578.38;;;6.03;68.20
21821;BME280;11073;48.586;12.066;2023-02-16T10:49:56;97573.13;;;6.39;68.01
21821;BME280;11073;48.586;12.066;2023-02-16T10:52:28;97580.09;;;6.63;67.66
21821;BME280;11073;48.586;12.066;2023-02-16T10:55:01;97571.53;;;6.89;67.05
21821;BME280;11073;48.586;12.066;2023-02-16T10:57:31;97575.16;;;6.96;66.56
21821;BME280;11073;48.586;12.066;2023-02-16T11:00:03;97563.56;;;7.32;66.49
21821;BME280;11073;48.586;12.066;2023-02-16T11:02:36;97564.78;;;7.51;65.81
21821;BME280;11073;48.586;12.066;2023-02-16T11:05:29;97556.50;;;7.52;65.58
21821;BME280;11073;48.586;12.066;2023-02-16T11:08:01;97554.44;;;7.76;64.95
21821;BME280;11073;48.586;12.066;2023-02-16T11:10:36;97550.38;;;7.86;65.02
21821;BME280;11073;48.586;12.066;2023-02-16T11:13:06;97554.03;;;8.00;64.55
21821;BME280;11073;48.586;12.066;2023-02-16T11:15:38;97551.63;;;8.40;64.33
21821;BME280;11073;48.586;12.066;2023-02-16T11:18:26;97544.19;;;8.83;63.63
21821;BME280;11073;48.586;12.066;2023-02-16T11:20:56;97540.13;;;9.00;63.14
21821;BME280;11073;48.586;12.066;2023-02-16T11:23:28;97536.66;;;9.20;62.86
21821;BME280;11073;48.586;12.066;2023-02-16T11:26:00;97518.16;;;9.17;62.30
21821;BME280;11073;48.586;12.066;2023-02-16T11:28:33;97512.72;;;9.10;61.86
21821;BME280;11073;48.586;12.066;2023-02-16T11:31:26;97515.63;;;9.08;61.80
21821;BME280;11073;48.586;12.066;2023-02-16T11:33:59;97517.25;;;8.96;61.28
21821;BME280;11073;48.586;12.066;2023-02-16T11:36:33;97521.22;;;9.00;61.57
21821;BME280;11073;48.586;12.066;2023-02-16T11:39:16;97524.75;;;9.01;61.22
21821;BME280;11073;48.586;12.066;2023-02-16T11:41:49;97523.38;;;9.25;61.05
21821;BME280;11073;48.586;12.066;2023-02-16T11:44:24;97532.56;;;9.37;60.89
21821;BME280;11073;48.586;12.066;2023-02-16T11:46:55;97528.03;;;9.64;60.97
21821;BME280;11073;48.586;12.066;2023-02-16T11:49:30;97522.84;;;9.95;60.61
21821;BME280;11073;48.586;12.066;2023-02-16T11:51:59;97523.88;;;10.14;59.98
21821;BME280;11073;48.586;12.066;2023-02-16T11:54:29;97522.00;;;10.21;59.97
21821;BME280;11073;48.586;12.066;2023-02-16T11:57:22;97514.06;;;10.40;59.82
21821;BME280;11073;48.586;12.066;2023-02-16T11:59:51;97516.84;;;10.91;59.33
21821;BME280;11073;48.586;12.066;2023-02-16T12:05:24;97507.22;;;12.03;58.26
21821;BME280;11073;48.586;12.066;2023-02-16T12:08:10;97513.16;;;12.37;57.49
21821;BME280;11073;48.586;12.066;2023-02-16T12:10:59;97506.03;;;12.61;57.17
21821;BME280;11073;48.586;12.066;2023-02-16T12:13:36;97503.38;;;12.91;56.53
21821;BME280;11073;48.586;12.066;2023-02-16T12:16:18;97502.28;;;13.29;56.08
21821;BME280;11073;48.586;12.066;2023-02-16T12:18:58;97493.16;;;13.53;55.58
21821;BME280;11073;48.586;12.066;2023-02-16T12:21:35;97502.19;;;13.65;54.56
21821;BME280;11073;48.586;12.066;2023-02-16T12:24:15;97491.59;;;13.87;54.21
21821;BME280;11073;48.586;12.066;2023-02-16T12:26:49;97486.78;;;14.13;53.66
21821;BME280;11073;48.586;12.066;2023-02-16T12:29:32;97485.25;;;14.28;53.00
21821;BME280;11073;48.586;12.066;2023-02-16T12:32:23;97488.19;;;14.62;52.44
21821;BME280;11073;48.586;12.066;2023-02-16T12:35:22;97483.50;;;14.98;51.91
21821;BME280;11073;48.586;12.066;2023-02-16T12:38:04;97474.75;;;15.24;51.29
21821;BME280;11073;48.586;12.066;2023-02-16T12:40:45;97472.44;;;15.44;50.58
21821;BME280;11073;48.586;12.066;2023-02-16T12:43:34;97473.31;;;15.62;50.08
21821;BME280;11073;48.586;12.066;2023-02-16T12:46:11;97459.31;;;15.58;49.29
21821;BME280;11073;48.586;12.066;2023-02-16T12:48:47;97457.88;;;15.56;48.71
21821;BME280;11073;48.586;12.066;2023-02-16T12:51:18;97452.16;;;15.69;48.06
21821;BME280;11073;48.586;12.066;2023-02-16T12:53:53;97461.84;;;15.77;48.09
21821;BME280;11073;48.586;12.066;2023-02-16T12:56:27;97451.00;;;15.98;47.36
21821;BME280;11073;48.586;12.066;2023-02-16T12:59:15;97447.13;;;15.94;47.03
21821;BME280;11073;48.586;12.066;2023-02-16T13:01:47;97449.34;;;16.31;46.93
21821;BME280;11073;48.586;12.066;2023-02-16T13:04:21;97445.72;;;16.47;46.01
21821;BME280;11073;48.586;12.066;2023-02-16T13:06:56;97427.72;;;16.30;45.92
21821;BME280;11073;48.586;12.066;2023-02-16T13:09:34;97447.44;;;16.70;45.88
21821;BME280;11073;48.586;12.066;2023-02-16T13:12:08;97443.97;;;16.75;45.17
21821;BME280;11073;48.586;12.066;2023-02-16T13:14:42;97439.47;;;16.69;45.19
21821;BME280;11073;48.586;12.066;2023-02-16T13:17:16;97435.06;;;16.46;45.18
21821;BME280;11073;48.586;12.066;2023-02-16T13:19:46;97430.53;;;16.57;45.11
21821;BME280;11073;48.586;12.066;2023-02-16T13:22:36;97436.50;;;16.92;45.09
21821;BME280;11073;48.586;12.066;2023-02-16T13:25:33;97442.97;;;17.08;44.54
21821;BME280;11073;48.586;12.066;2023-02-16T13:28:13;97437.28;;;16.88;44.11
21821;BME280;11073;48.586;12.066;2023-02-16T13:31:05;97438.75;;;16.95;43.93
21821;BME280;11073;48.586;12.066;2023-02-16T13:34:00;97431.38;;;16.96;43.58
21821;BME280;11073;48.586;12.066;2023-02-16T13:36:49;97434.22;;;16.84;43.54